sensor_id;sensor_type;location;lat;lon;timestamp;P1;durP1;ratioP1;P2;durP2;ratioP2
77968;SDS011;67161;0.000;0.000;2023-04-10T00:01:38;479.75;;;155.57;;
77968;SDS011;67161;0.000;0.000;2023-04-10T00:04:04;484.35;;;155.80;;
77968;SDS011;67161;0.000;0.000;2023-04-10T00:06:30;490.88;;;157.90;;
77968;SDS011;67161;0.000;0.000;2023-04-10T00:08:59;491.48;;;158.57;;
77968;SDS011;67161;0.000;0.000;2023-04-10T00:11:25;497.13;;;160.77;;
77968;SDS011;67161;0.000;0.000;2023-04-10T00:13:51;502.52;;;162.13;;
77968;SDS011;67161;0.000;0.000;2023-04-10T00:16:18;500.52;;;162.02;;
77968;SDS011;67161;0.000;0.000;2023-04-10T00:18:44;513.00;;;164.45;;
77968;SDS011;67161;0.000;0.000;2023-04-10T00:21:10;518.00;;;165.80;;
77968;SDS011;67161;0.000;0.000;2023-04-10T00:23:36;516.78;;;166.05;;
77968;SDS011;67161;0.000;0.000;2023-04-10T00:26:02;514.97;;;164.90;;
77968;SDS011;67161;0.000;0.000;2023-04-10T00:28:28;513.60;;;165.57;;
77968;SDS011;67161;0.000;0.000;2023-04-10T00:30:53;511.15;;;164.20;;
77968;SDS011;67161;0.000;0.000;2023-04-10T00:33:19;513.95;;;164.20;;
77968;SDS011;67161;0.000;0.000;2023-04-10T00:35:45;520.67;;;167.50;;
77968;SDS011;67161;0.000;0.000;2023-04-10T00:38:11;521.80;;;167.73;;
77968;SDS011;67161;0.000;0.000;2023-04-10T00:40:37;511.75;;;164.35;;
77968;SDS011;67161;0.000;0.000;2023-04-10T00:43:02;528.35;;;169.80;;
77968;SDS011;67161;0.000;0.000;2023-04-10T00:45:28;532.13;;;170.25;;
77968;SDS011;67161;0.000;0.000;2023-04-10T00:47:54;533.78;;;171.15;;
77968;SDS011;67161;0.000;0.000;2023-04-10T00:50:21;535.03;;;172.65;;
77968;SDS011;67161;0.000;0.000;2023-04-10T00:52:47;532.85;;;170.95;;
77968;SDS011;67161;0.000;0.000;2023-04-10T00:55:13;536.25;;;173.50;;
77968;SDS011;67161;0.000;0.000;2023-04-10T00:57:43;540.17;;;173.93;;
77968;SDS011;67161;0.000;0.000;2023-04-10T01:00:13;541.22;;;174.48;;
77968;SDS011;67161;0.000;0.000;2023-04-10T01:02:39;537.92;;;173.80;;
77968;SDS011;67161;0.000;0.000;2023-04-10T01:05:05;535.78;;;172.60;;
77968;SDS011;67161;0.000;0.000;2023-04-10T01:10:25;544.72;;;175.60;;
77968;SDS011;67161;0.000;0.000;2023-04-10T01:13:00;537.17;;;173.60;;
77968;SDS011;67161;0.000;0.000;2023-04-10T01:15:46;544.10;;;176.07;;
77968;SDS011;67161;0.000;0.000;2023-04-10T01:21:16;553.53;;;179.15;;
77968;SDS011;67161;0.000;0.000;2023-04-10T01:23:53;546.90;;;176.40;;
77968;SDS011;67161;0.000;0.000;2023-04-10T01:26:41;556.03;;;180.27;;
77968;SDS011;67161;0.000;0.000;2023-04-10T01:29:31;565.95;;;182.68;;
77968;SDS011;67161;0.000;0.000;2023-04-10T01:32:02;579.38;;;186.43;;
77968;SDS011;67161;0.000;0.000;2023-04-10T01:34:37;585.08;;;189.43;;
77968;SDS011;67161;0.000;0.000;2023-04-10T01:37:08;575.03;;;186.15;;
77968;SDS011;67161;0.000;0.000;2023-04-10T01:39:40;583.47;;;190.57;;
77968;SDS011;67161;0.000;0.000;2023-04-10T01:42:08;582.58;;;189.35;;
77968;SDS011;67161;0.000;0.000;2023-04-10T01:44:35;593.88;;;193.05;;
77968;SDS011;67161;0.000;0.000;2023-04-10T01:47:05;609.53;;;199.52;;
77968;SDS011;67161;0.000;0.000;2023-04-10T01:49:32;622.92;;;203.63;;
77968;SDS011;67161;0.000;0.000;2023-04-10T01:51:59;638.33;;;209.13;;
77968;SDS011;67161;0.000;0.000;2023-04-10T01:54:26;643.13;;;210.95;;
77968;SDS011;67161;0.000;0.000;2023-04-10T01:56:52;634.58;;;209.00;;
77968;SDS011;67161;0.000;0.000;2023-04-10T01:59:18;632.63;;;206.98;;
77968;SDS011;67161;0.000;0.000;2023-04-10T02:01:45;631.78;;;207.43;;
77968;SDS011;67161;0.000;0.000;2023-04-10T02:04:10;628.30;;;206.88;;
77968;SDS011;67161;0.000;0.000;2023-04-10T02:06:40;620.50;;;203.80;;
77968;SDS011;67161;0.000;0.000;2023-04-10T02:09:22;619.65;;;202.52;;
77968;SDS011;67161;0.000;0.000;2023-04-10T02:11:58;617.03;;;202.20;;
77968;SDS011;67161;0.000;0.000;2023-04-10T02:14:29;609.17;;;200.82;;
77968;SDS011;67161;0.000;0.000;2023-04-10T02:16:56;611.17;;;200.00;;
77968;SDS011;67161;0.000;0.000;2023-04-10T02:19:23;614.13;;;201.43;;
77968;SDS011;67161;0.000;0.000;2023-04-10T02:21:50;618.20;;;204.70;;
77968;SDS011;67161;0.000;0.000;2023-04-10T02:24:17;618.10;;;202.75;;
77968;SDS011;67161;0.000;0.000;2023-04-10T02:26:45;617.72;;;202.90;;
77968;SDS011;67161;0.000;0.000;2023-04-10T02:29:11;612.55;;;202.57;;
77968;SDS011;67161;0.000;0.000;2023-04-10T02:31:38;629.70;;;207.55;;
77968;SDS011;67161;0.000;0.000;2023-04-10T02:34:04;628.17;;;207.65;;
77968;SDS011;67161;0.000;0.000;2023-04-10T02:36:31;619.33;;;205.52;;
77968;SDS011;67161;0.000;0.000;2023-04-10T02:38:57;615.83;;;203.68;;
77968;SDS011;67161;0.000;0.000;2023-04-10T02:41:22;618.20;;;204.90;;
77968;SDS011;67161;0.000;0.000;2023-04-10T02:43:48;625.20;;;206.57;;
77968;SDS011;67161;0.000;0.000;2023-04-10T02:46:14;629.58;;;208.10;;
77968;SDS011;67161;0.000;0.000;2023-04-10T02:48:40;625.83;;;207.68;;
77968;SDS011;67161;0.000;0.000;2023-04-10T02:51:05;623.67;;;207.15;;
77968;SDS011;67161;0.000;0.000;2023-04-10T02:53:32;622.67;;;207.52;;
77968;SDS011;67161;0.000;0.000;2023-04-10T02:55:58;641.03;;;212.90;;
77968;SDS011;67161;0.000;0.000;2023-04-10T02:58:23;634.72;;;211.07;;
77968;SDS011;67161;0.000;0.000;2023-04-10T03:00:50;631.88;;;209.52;;
77968;SDS011;67161;0.000;0.000;2023-04-10T03:03:17;636.45;;;212.18;;
77968;SDS011;67161;0.000;0.000;2023-04-10T03:05:43;616.30;;;205.63;;
77968;SDS011;67161;0.000;0.000;2023-04-10T03:08:13;625.30;;;208.63;;
77968;SDS011;67161;0.000;0.000;2023-04-10T03:10:41;584.00;;;194.40;;
77968;SDS011;67161;0.000;0.000;2023-04-10T03:13:08;606.33;;;202.05;;
77968;SDS011;67161;0.000;0.000;2023-04-10T03:15:33;609.38;;;203.43;;
77968;SDS011;67161;0.000;0.000;2023-04-10T03:17:59;621.92;;;208.77;;
77968;SDS011;67161;0.000;0.000;2023-04-10T03:20:25;616.25;;;205.70;;
77968;SDS011;67161;0.000;0.000;2023-04-10T03:22:50;620.63;;;207.35;;
77968;SDS011;67161;0.000;0.000;2023-04-10T03:25:16;618.58;;;207.63;;
77968;SDS011;67161;0.000;0.000;2023-04-10T03:27:41;629.15;;;210.88;;
77968;SDS011;67161;0.000;0.000;2023-04-10T03:30:07;644.13;;;214.68;;
77968;SDS011;67161;0.000;0.000;2023-04-10T03:32:33;633.13;;;212.32;;
77968;SDS011;67161;0.000;0.000;2023-04-10T03:34:58;633.75;;;210.35;;
77968;SDS011;67161;0.000;0.000;2023-04-10T03:37:24;632.75;;;212.75;;
77968;SDS011;67161;0.000;0.000;2023-04-10T03:39:51;631.25;;;212.00;;
77968;SDS011;67161;0.000;0.000;2023-04-10T03:42:17;617.00;;;206.25;;
77968;SDS011;67161;0.000;0.000;2023-04-10T03:44:43;626.67;;;210.00;;
77968;SDS011;67161;0.000;0.000;2023-04-10T03:47:08;633.22;;;212.25;;
77968;SDS011;67161;0.000;0.000;2023-04-10T03:49:34;643.58;;;215.23;;
77968;SDS011;67161;0.000;0.000;2023-04-10T03:51:59;642.83;;;214.90;;
77968;SDS011;67161;0.000;0.000;2023-04-10T03:54:25;647.35;;;216.82;;
77968;SDS011;67161;0.000;0.000;2023-04-10T03:56:51;649.38;;;218.15;;
77968;SDS011;67161;0.000;0.000;2023-04-10T03:59:16;645.45;;;216.93;;
77968;SDS011;67161;0.000;0.000;2023-04-10T04:01:42;640.72;;;214.13;;
77968;SDS011;67161;0.000;0.000;2023-04-10T04:04:07;646.70;;;216.82;;
77968;SDS011;67161;0.000;0.000;2023-04-10T04:06:33;647.83;;;216.80;;
77968;SDS011;67161;0.000;0.000;2023-04-10T04:08:59;653.33;;;219.43;;
77968;SDS011;67161;0.000;0.000;2023-04-10T04:11:24;659.88;;;220.68;;
77968;SDS011;67161;0.000;0.000;2023-04-10T04:13:51;656.65;;;221.07;;
77968;SDS011;67161;0.000;0.000;2023-04-10T04:16:17;649.15;;;217.73;;
77968;SDS011;67161;0.000;0.000;2023-04-10T04:18:43;630.47;;;212.48;;
77968;SDS011;67161;0.000;0.000;2023-04-10T04:21:08;630.40;;;212.55;;
77968;SDS011;67161;0.000;0.000;2023-04-10T04:23:34;642.15;;;215.57;;
77968;SDS011;67161;0.000;0.000;2023-04-10T04:25:59;624.90;;;209.85;;
77968;SDS011;67161;0.000;0.000;2023-04-10T04:28:25;636.78;;;213.32;;
77968;SDS011;67161;0.000;0.000;2023-04-10T04:30:51;642.55;;;214.63;;
77968;SDS011;67161;0.000;0.000;2023-04-10T04:33:16;654.38;;;219.90;;
77968;SDS011;67161;0.000;0.000;2023-04-10T04:35:42;657.50;;;222.45;;
77968;SDS011;67161;0.000;0.000;2023-04-10T04:38:08;651.38;;;218.93;;
77968;SDS011;67161;0.000;0.000;2023-04-10T04:40:33;647.95;;;217.15;;
77968;SDS011;67161;0.000;0.000;2023-04-10T04:42:59;652.17;;;220.50;;
77968;SDS011;67161;0.000;0.000;2023-04-10T04:45:25;651.45;;;219.75;;
77968;SDS011;67161;0.000;0.000;2023-04-10T04:47:50;656.13;;;221.77;;
77968;SDS011;67161;0.000;0.000;2023-04-10T04:50:16;661.70;;;221.90;;
77968;SDS011;67161;0.000;0.000;2023-04-10T04:52:42;663.53;;;224.88;;
77968;SDS011;67161;0.000;0.000;2023-04-10T04:55:08;659.35;;;220.98;;
77968;SDS011;67161;0.000;0.000;2023-04-10T04:57:34;667.10;;;224.43;;
77968;SDS011;67161;0.000;0.000;2023-04-10T04:59:59;662.83;;;221.32;;
77968;SDS011;67161;0.000;0.000;2023-04-10T05:02:25;668.92;;;226.10;;
77968;SDS011;67161;0.000;0.000;2023-04-10T05:04:50;671.83;;;226.57;;
77968;SDS011;67161;0.000;0.000;2023-04-10T05:07:16;666.05;;;226.45;;
77968;SDS011;67161;0.000;0.000;2023-04-10T05:09:41;653.28;;;220.00;;
77968;SDS011;67161;0.000;0.000;2023-04-10T05:12:07;668.63;;;224.02;;
77968;SDS011;67161;0.000;0.000;2023-04-10T05:14:33;662.55;;;223.25;;
77968;SDS011;67161;0.000;0.000;2023-04-10T05:16:58;651.40;;;219.40;;
77968;SDS011;67161;0.000;0.000;2023-04-10T05:19:24;657.00;;;222.95;;
77968;SDS011;67161;0.000;0.000;2023-04-10T05:21:50;655.88;;;222.02;;
77968;SDS011;67161;0.000;0.000;2023-04-10T05:24:15;658.80;;;222.15;;
77968;SDS011;67161;0.000;0.000;2023-04-10T05:26:41;667.78;;;224.80;;
77968;SDS011;67161;0.000;0.000;2023-04-10T05:29:07;669.75;;;225.85;;
77968;SDS011;67161;0.000;0.000;2023-04-10T05:31:32;676.05;;;226.68;;
77968;SDS011;67161;0.000;0.000;2023-04-10T05:33:58;673.17;;;227.32;;
77968;SDS011;67161;0.000;0.000;2023-04-10T05:36:24;680.08;;;230.38;;
77968;SDS011;67161;0.000;0.000;2023-04-10T05:38:49;679.85;;;229.70;;
77968;SDS011;67161;0.000;0.000;2023-04-10T05:41:15;690.53;;;232.23;;
77968;SDS011;67161;0.000;0.000;2023-04-10T05:43:41;678.47;;;228.48;;
77968;SDS011;67161;0.000;0.000;2023-04-10T05:46:06;678.03;;;227.95;;
77968;SDS011;67161;0.000;0.000;2023-04-10T05:48:32;682.15;;;229.45;;
77968;SDS011;67161;0.000;0.000;2023-04-10T05:50:57;677.10;;;229.30;;
77968;SDS011;67161;0.000;0.000;2023-04-10T05:53:26;655.88;;;222.40;;
77968;SDS011;67161;0.000;0.000;2023-04-10T05:55:56;656.70;;;221.93;;
77968;SDS011;67161;0.000;0.000;2023-04-10T05:58:23;674.05;;;227.73;;
77968;SDS011;67161;0.000;0.000;2023-04-10T06:00:50;673.67;;;227.05;;
77968;SDS011;67161;0.000;0.000;2023-04-10T06:03:16;678.53;;;228.57;;
77968;SDS011;67161;0.000;0.000;2023-04-10T06:05:42;688.42;;;232.07;;
77968;SDS011;67161;0.000;0.000;2023-04-10T06:08:08;682.22;;;228.10;;
77968;SDS011;67161;0.000;0.000;2023-04-10T06:10:33;682.60;;;230.35;;
77968;SDS011;67161;0.000;0.000;2023-04-10T06:12:59;690.67;;;233.25;;
77968;SDS011;67161;0.000;0.000;2023-04-10T06:15:25;685.38;;;230.30;;
77968;SDS011;67161;0.000;0.000;2023-04-10T06:17:51;678.03;;;228.52;;
77968;SDS011;67161;0.000;0.000;2023-04-10T06:20:17;686.40;;;229.35;;
77968;SDS011;67161;0.000;0.000;2023-04-10T06:22:43;685.10;;;231.35;;
77968;SDS011;67161;0.000;0.000;2023-04-10T06:25:09;680.33;;;227.82;;
77968;SDS011;67161;0.000;0.000;2023-04-10T06:27:35;668.95;;;225.43;;
77968;SDS011;67161;0.000;0.000;2023-04-10T06:30:01;669.00;;;225.82;;
77968;SDS011;67161;0.000;0.000;2023-04-10T06:32:27;664.08;;;224.05;;
77968;SDS011;67161;0.000;0.000;2023-04-10T06:34:52;671.40;;;227.48;;
77968;SDS011;67161;0.000;0.000;2023-04-10T06:37:18;666.90;;;225.43;;
77968;SDS011;67161;0.000;0.000;2023-04-10T06:39:44;665.03;;;224.98;;
77968;SDS011;67161;0.000;0.000;2023-04-10T06:42:09;675.67;;;227.77;;
77968;SDS011;67161;0.000;0.000;2023-04-10T06:44:35;667.95;;;225.38;;
77968;SDS011;67161;0.000;0.000;2023-04-10T06:47:00;679.42;;;229.43;;
77968;SDS011;67161;0.000;0.000;2023-04-10T06:49:26;671.80;;;227.95;;
77968;SDS011;67161;0.000;0.000;2023-04-10T06:51:51;674.00;;;228.00;;
77968;SDS011;67161;0.000;0.000;2023-04-10T06:54:17;654.05;;;220.85;;
77968;SDS011;67161;0.000;0.000;2023-04-10T06:56:43;670.03;;;226.63;;
77968;SDS011;67161;0.000;0.000;2023-04-10T06:59:08;653.30;;;218.98;;
77968;SDS011;67161;0.000;0.000;2023-04-10T07:01:34;657.92;;;222.73;;
77968;SDS011;67161;0.000;0.000;2023-04-10T07:04:00;675.90;;;229.60;;
77968;SDS011;67161;0.000;0.000;2023-04-10T07:06:26;682.30;;;230.00;;
77968;SDS011;67161;0.000;0.000;2023-04-10T07:08:53;686.13;;;231.75;;
77968;SDS011;67161;0.000;0.000;2023-04-10T07:11:18;682.38;;;230.45;;
77968;SDS011;67161;0.000;0.000;2023-04-10T07:13:44;695.70;;;233.40;;
77968;SDS011;67161;0.000;0.000;2023-04-10T07:16:10;685.58;;;230.18;;
77968;SDS011;67161;0.000;0.000;2023-04-10T07:18:36;688.28;;;233.27;;
77968;SDS011;67161;0.000;0.000;2023-04-10T07:21:12;672.55;;;224.60;;
77968;SDS011;67161;0.000;0.000;2023-04-10T07:23:37;694.58;;;234.25;;
77968;SDS011;67161;0.000;0.000;2023-04-10T07:26:03;686.83;;;230.82;;
77968;SDS011;67161;0.000;0.000;2023-04-10T07:28:29;687.38;;;231.40;;
77968;SDS011;67161;0.000;0.000;2023-04-10T07:30:54;675.88;;;228.95;;
77968;SDS011;67161;0.000;0.000;2023-04-10T07:33:20;685.30;;;233.20;;
77968;SDS011;67161;0.000;0.000;2023-04-10T07:35:45;684.63;;;230.18;;
77968;SDS011;67161;0.000;0.000;2023-04-10T07:38:11;683.58;;;230.57;;
77968;SDS011;67161;0.000;0.000;2023-04-10T07:40:37;672.97;;;225.52;;
77968;SDS011;67161;0.000;0.000;2023-04-10T07:43:02;680.38;;;228.52;;
77968;SDS011;67161;0.000;0.000;2023-04-10T07:45:28;682.03;;;227.73;;
77968;SDS011;67161;0.000;0.000;2023-04-10T07:47:53;674.45;;;226.75;;
77968;SDS011;67161;0.000;0.000;2023-04-10T07:50:19;694.65;;;233.35;;
77968;SDS011;67161;0.000;0.000;2023-04-10T07:52:45;671.83;;;223.82;;
77968;SDS011;67161;0.000;0.000;2023-04-10T07:55:12;695.97;;;232.93;;
77968;SDS011;67161;0.000;0.000;2023-04-10T07:57:38;689.35;;;231.52;;
77968;SDS011;67161;0.000;0.000;2023-04-10T08:00:03;699.35;;;233.02;;
77968;SDS011;67161;0.000;0.000;2023-04-10T08:02:29;688.95;;;229.65;;
77968;SDS011;67161;0.000;0.000;2023-04-10T08:04:55;680.60;;;226.77;;
77968;SDS011;67161;0.000;0.000;2023-04-10T08:07:20;688.75;;;230.40;;
77968;SDS011;67161;0.000;0.000;2023-04-10T08:09:46;689.22;;;229.30;;
77968;SDS011;67161;0.000;0.000;2023-04-10T08:12:12;671.08;;;225.02;;
77968;SDS011;67161;0.000;0.000;2023-04-10T08:14:38;672.63;;;223.88;;
77968;SDS011;67161;0.000;0.000;2023-04-10T08:17:03;680.25;;;226.48;;
77968;SDS011;67161;0.000;0.000;2023-04-10T08:19:29;688.75;;;228.75;;
77968;SDS011;67161;0.000;0.000;2023-04-10T08:21:55;675.60;;;226.77;;
77968;SDS011;67161;0.000;0.000;2023-04-10T08:24:20;676.00;;;224.82;;
77968;SDS011;67161;0.000;0.000;2023-04-10T08:26:46;674.42;;;224.52;;
77968;SDS011;67161;0.000;0.000;2023-04-10T08:29:12;680.40;;;225.30;;
77968;SDS011;67161;0.000;0.000;2023-04-10T08:31:38;675.13;;;224.55;;
77968;SDS011;67161;0.000;0.000;2023-04-10T08:34:04;641.05;;;213.02;;
77968;SDS011;67161;0.000;0.000;2023-04-10T08:36:29;660.33;;;218.57;;
77968;SDS011;67161;0.000;0.000;2023-04-10T08:38:55;679.95;;;225.02;;
77968;SDS011;67161;0.000;0.000;2023-04-10T08:41:21;674.80;;;222.23;;
77968;SDS011;67161;0.000;0.000;2023-04-10T08:43:47;686.80;;;226.05;;
77968;SDS011;67161;0.000;0.000;2023-04-10T08:46:14;683.60;;;225.23;;
77968;SDS011;67161;0.000;0.000;2023-04-10T08:51:13;681.65;;;224.10;;
77968;SDS011;67161;0.000;0.000;2023-04-10T08:53:42;679.42;;;224.73;;
77968;SDS011;67161;0.000;0.000;2023-04-10T08:56:11;686.85;;;227.45;;
77968;SDS011;67161;0.000;0.000;2023-04-10T08:58:41;672.22;;;222.15;;
77968;SDS011;67161;0.000;0.000;2023-04-10T09:01:07;691.45;;;225.63;;
77968;SDS011;67161;0.000;0.000;2023-04-10T09:03:35;703.15;;;230.75;;
77968;SDS011;67161;0.000;0.000;2023-04-10T09:06:02;696.42;;;229.77;;
77968;SDS011;67161;0.000;0.000;2023-04-10T09:08:28;696.70;;;228.45;;
77968;SDS011;67161;0.000;0.000;2023-04-10T09:10:54;693.70;;;227.90;;
77968;SDS011;67161;0.000;0.000;2023-04-10T09:13:36;693.10;;;228.18;;
77968;SDS011;67161;0.000;0.000;2023-04-10T09:16:07;701.25;;;231.55;;
77968;SDS011;67161;0.000;0.000;2023-04-10T09:18:44;694.10;;;228.27;;
77968;SDS011;67161;0.000;0.000;2023-04-10T09:21:15;691.25;;;229.10;;
77968;SDS011;67161;0.000;0.000;2023-04-10T09:23:45;688.65;;;226.93;;
77968;SDS011;67161;0.000;0.000;2023-04-10T09:29:06;680.35;;;222.52;;
77968;SDS011;67161;0.000;0.000;2023-04-10T09:31:35;683.15;;;224.38;;
77968;SDS011;67161;0.000;0.000;2023-04-10T09:34:08;690.10;;;225.85;;
77968;SDS011;67161;0.000;0.000;2023-04-10T09:36:54;677.53;;;222.45;;
77968;SDS011;67161;0.000;0.000;2023-04-10T09:39:29;674.63;;;220.35;;
77968;SDS011;67161;0.000;0.000;2023-04-10T09:41:56;672.90;;;220.65;;
77968;SDS011;67161;0.000;0.000;2023-04-10T09:44:32;680.63;;;222.43;;
77968;SDS011;67161;0.000;0.000;2023-04-10T09:47:18;675.83;;;221.25;;
77968;SDS011;67161;0.000;0.000;2023-04-10T09:50:06;678.25;;;221.20;;
77968;SDS011;67161;0.000;0.000;2023-04-10T09:52:34;676.20;;;220.25;;
77968;SDS011;67161;0.000;0.000;2023-04-10T09:55:04;668.35;;;217.60;;
77968;SDS011;67161;0.000;0.000;2023-04-10T09:57:31;671.03;;;217.93;;
77968;SDS011;67161;0.000;0.000;2023-04-10T10:00:02;682.13;;;221.32;;
77968;SDS011;67161;0.000;0.000;2023-04-10T10:02:30;678.15;;;219.32;;
77968;SDS011;67161;0.000;0.000;2023-04-10T10:04:57;685.65;;;223.48;;
77968;SDS011;67161;0.000;0.000;2023-04-10T10:07:26;685.30;;;222.45;;
77968;SDS011;67161;0.000;0.000;2023-04-10T10:09:53;681.45;;;220.30;;
77968;SDS011;67161;0.000;0.000;2023-04-10T10:17:58;686.70;;;222.90;;
77968;SDS011;67161;0.000;0.000;2023-04-10T10:20:46;686.45;;;221.80;;
77968;SDS011;67161;0.000;0.000;2023-04-10T10:23:12;682.88;;;220.35;;
77968;SDS011;67161;0.000;0.000;2023-04-10T10:25:39;673.45;;;218.07;;
77968;SDS011;67161;0.000;0.000;2023-04-10T10:28:07;663.72;;;214.98;;
77968;SDS011;67161;0.000;0.000;2023-04-10T10:30:37;658.72;;;213.50;;
77968;SDS011;67161;0.000;0.000;2023-04-10T10:33:05;667.70;;;215.77;;
77968;SDS011;67161;0.000;0.000;2023-04-10T10:35:35;660.60;;;212.75;;
77968;SDS011;67161;0.000;0.000;2023-04-10T10:38:04;663.85;;;214.98;;
77968;SDS011;67161;0.000;0.000;2023-04-10T10:40:31;673.33;;;216.02;;
77968;SDS011;67161;0.000;0.000;2023-04-10T10:45:30;658.47;;;210.95;;
77968;SDS011;67161;0.000;0.000;2023-04-10T10:48:00;655.42;;;210.48;;
77968;SDS011;67161;0.000;0.000;2023-04-10T10:50:47;663.63;;;212.80;;
77968;SDS011;67161;0.000;0.000;2023-04-10T10:56:11;669.28;;;215.57;;
77968;SDS011;67161;0.000;0.000;2023-04-10T10:58:48;666.38;;;213.02;;
77968;SDS011;67161;0.000;0.000;2023-04-10T11:01:18;670.35;;;215.20;;
77968;SDS011;67161;0.000;0.000;2023-04-10T11:03:45;679.05;;;216.88;;
77968;SDS011;67161;0.000;0.000;2023-04-10T11:06:15;670.35;;;214.82;;
77968;SDS011;67161;0.000;0.000;2023-04-10T11:08:49;675.08;;;214.68;;
77968;SDS011;67161;0.000;0.000;2023-04-10T11:11:22;671.08;;;213.23;;
77968;SDS011;67161;0.000;0.000;2023-04-10T11:16:21;677.45;;;214.73;;
77968;SDS011;67161;0.000;0.000;2023-04-10T11:28:59;673.38;;;213.13;;
77968;SDS011;67161;0.000;0.000;2023-04-10T11:31:28;668.78;;;213.30;;
77968;SDS011;67161;0.000;0.000;2023-04-10T11:36:21;658.78;;;208.65;;
77968;SDS011;67161;0.000;0.000;2023-04-10T11:38:54;666.42;;;211.70;;
77968;SDS011;67161;0.000;0.000;2023-04-10T11:41:27;663.13;;;210.35;;
77968;SDS011;67161;0.000;0.000;2023-04-10T11:43:55;656.88;;;207.98;;
77968;SDS011;67161;0.000;0.000;2023-04-10T11:46:21;651.72;;;207.73;;
77968;SDS011;67161;0.000;0.000;2023-04-10T11:48:51;648.92;;;205.30;;
77968;SDS011;67161;0.000;0.000;2023-04-10T11:51:24;647.22;;;204.05;;
77968;SDS011;67161;0.000;0.000;2023-04-10T11:54:14;643.10;;;202.75;;
77968;SDS011;67161;0.000;0.000;2023-04-10T11:56:43;642.30;;;202.48;;
77968;SDS011;67161;0.000;0.000;2023-04-10T11:59:30;651.30;;;206.60;;
77968;SDS011;67161;0.000;0.000;2023-04-10T12:02:12;647.90;;;204.80;;
77968;SDS011;67161;0.000;0.000;2023-04-10T12:04:39;648.60;;;203.98;;
77968;SDS011;67161;0.000;0.000;2023-04-10T12:07:06;647.97;;;204.05;;
77968;SDS011;67161;0.000;0.000;2023-04-10T12:09:33;648.78;;;204.70;;
77968;SDS011;67161;0.000;0.000;2023-04-10T12:11:59;649.40;;;204.65;;
77968;SDS011;67161;0.000;0.000;2023-04-10T12:14:34;657.92;;;206.95;;
77968;SDS011;67161;0.000;0.000;2023-04-10T12:17:02;652.88;;;205.52;;
77968;SDS011;67161;0.000;0.000;2023-04-10T12:19:28;646.45;;;203.85;;
77968;SDS011;67161;0.000;0.000;2023-04-10T12:21:55;649.50;;;204.02;;
77968;SDS011;67161;0.000;0.000;2023-04-10T12:27:15;650.67;;;204.82;;
77968;SDS011;67161;0.000;0.000;2023-04-10T12:29:41;643.75;;;202.07;;
77968;SDS011;67161;0.000;0.000;2023-04-10T12:32:08;640.10;;;201.32;;
77968;SDS011;67161;0.000;0.000;2023-04-10T12:34:37;645.08;;;202.52;;
77968;SDS011;67161;0.000;0.000;2023-04-10T12:37:03;642.83;;;201.65;;
77968;SDS011;67161;0.000;0.000;2023-04-10T12:39:30;650.80;;;203.32;;
77968;SDS011;67161;0.000;0.000;2023-04-10T12:42:15;649.22;;;203.18;;
77968;SDS011;67161;0.000;0.000;2023-04-10T12:44:54;652.53;;;204.40;;
77968;SDS011;67161;0.000;0.000;2023-04-10T12:47:25;653.83;;;205.25;;
77968;SDS011;67161;0.000;0.000;2023-04-10T12:50:08;652.38;;;205.07;;
77968;SDS011;67161;0.000;0.000;2023-04-10T12:52:35;648.00;;;203.65;;
77968;SDS011;67161;0.000;0.000;2023-04-10T12:57:44;636.87;;;198.23;;
77968;SDS011;67161;0.000;0.000;2023-04-10T13:00:14;653.63;;;205.13;;
77968;SDS011;67161;0.000;0.000;2023-04-10T13:02:41;652.42;;;203.55;;
77968;SDS011;67161;0.000;0.000;2023-04-10T13:05:07;648.00;;;203.40;;
77968;SDS011;67161;0.000;0.000;2023-04-10T13:07:34;643.25;;;201.38;;
77968;SDS011;67161;0.000;0.000;2023-04-10T13:10:03;648.33;;;202.13;;
77968;SDS011;67161;0.000;0.000;2023-04-10T13:12:31;646.45;;;200.95;;
77968;SDS011;67161;0.000;0.000;2023-04-10T13:14:58;644.03;;;201.40;;
77968;SDS011;67161;0.000;0.000;2023-04-10T13:17:25;640.47;;;200.45;;
77968;SDS011;67161;0.000;0.000;2023-04-10T13:19:51;641.03;;;200.65;;
77968;SDS011;67161;0.000;0.000;2023-04-10T13:22:17;640.33;;;199.63;;
77968;SDS011;67161;0.000;0.000;2023-04-10T13:24:43;643.17;;;201.27;;
77968;SDS011;67161;0.000;0.000;2023-04-10T13:27:09;659.83;;;205.80;;
77968;SDS011;67161;0.000;0.000;2023-04-10T13:29:35;643.17;;;201.13;;
77968;SDS011;67161;0.000;0.000;2023-04-10T13:32:03;643.92;;;200.88;;
77968;SDS011;67161;0.000;0.000;2023-04-10T13:34:30;639.25;;;199.88;;
77968;SDS011;67161;0.000;0.000;2023-04-10T13:36:56;624.67;;;194.90;;
77968;SDS011;67161;0.000;0.000;2023-04-10T13:39:21;623.70;;;194.60;;
77968;SDS011;67161;0.000;0.000;2023-04-10T13:41:47;635.22;;;198.23;;
77968;SDS011;67161;0.000;0.000;2023-04-10T13:44:13;643.95;;;200.85;;
77968;SDS011;67161;0.000;0.000;2023-04-10T13:46:38;646.53;;;201.50;;
77968;SDS011;67161;0.000;0.000;2023-04-10T13:49:04;645.55;;;201.60;;
77968;SDS011;67161;0.000;0.000;2023-04-10T13:51:30;644.78;;;201.68;;
77968;SDS011;67161;0.000;0.000;2023-04-10T13:53:55;640.67;;;200.05;;
77968;SDS011;67161;0.000;0.000;2023-04-10T13:56:21;644.22;;;202.25;;
77968;SDS011;67161;0.000;0.000;2023-04-10T13:58:47;634.17;;;197.88;;
77968;SDS011;67161;0.000;0.000;2023-04-10T14:01:13;651.72;;;203.07;;
77968;SDS011;67161;0.000;0.000;2023-04-10T14:03:38;649.17;;;203.05;;
77968;SDS011;67161;0.000;0.000;2023-04-10T14:06:04;652.97;;;203.75;;
77968;SDS011;67161;0.000;0.000;2023-04-10T14:08:30;653.33;;;204.27;;
77968;SDS011;67161;0.000;0.000;2023-04-10T14:10:55;660.97;;;206.75;;
77968;SDS011;67161;0.000;0.000;2023-04-10T14:13:21;658.22;;;205.65;;
77968;SDS011;67161;0.000;0.000;2023-04-10T14:15:46;660.28;;;207.52;;
77968;SDS011;67161;0.000;0.000;2023-04-10T14:18:12;646.85;;;203.18;;
77968;SDS011;67161;0.000;0.000;2023-04-10T14:20:42;666.95;;;208.77;;
77968;SDS011;67161;0.000;0.000;2023-04-10T14:23:08;673.03;;;210.50;;
77968;SDS011;67161;0.000;0.000;2023-04-10T14:25:40;675.60;;;212.57;;
77968;SDS011;67161;0.000;0.000;2023-04-10T14:28:06;680.38;;;213.25;;
77968;SDS011;67161;0.000;0.000;2023-04-10T14:30:32;668.58;;;209.90;;
77968;SDS011;67161;0.000;0.000;2023-04-10T14:32:58;674.45;;;210.57;;
77968;SDS011;67161;0.000;0.000;2023-04-10T14:35:23;680.28;;;213.00;;
77968;SDS011;67161;0.000;0.000;2023-04-10T14:37:49;681.53;;;214.20;;
77968;SDS011;67161;0.000;0.000;2023-04-10T14:40:15;663.90;;;208.23;;
77968;SDS011;67161;0.000;0.000;2023-04-10T14:42:40;665.15;;;209.30;;
77968;SDS011;67161;0.000;0.000;2023-04-10T14:45:06;671.17;;;209.95;;
77968;SDS011;67161;0.000;0.000;2023-04-10T14:47:32;680.10;;;212.75;;
77968;SDS011;67161;0.000;0.000;2023-04-10T14:49:58;675.88;;;211.13;;
77968;SDS011;67161;0.000;0.000;2023-04-10T14:52:23;668.58;;;208.93;;
77968;SDS011;67161;0.000;0.000;2023-04-10T14:54:49;671.33;;;210.70;;